Time;durP1;ratioP1;P1;durP2;ratioP2;P2;SDS_P1;SDS_P2;PMS_P1;PMS_P2;Temp;Humidity;BMP_temperature;BMP_pressure;BME280_temperature;BME280_humidity;BME280_pressure;Samples;Min_cycle;Max_cycle;Signal;HPM_P1;HPM_P2
2021/09/15 00:04:58;;;;;;;14.73;11.43;;;;;;;18.64;71.71;100093.25;8546405;34;20225;-72
2021/09/15 00:10:02;;;;;;;14.25;10.75;;;;;;;18.57;72.00;100085.00;8546804;34;20217;-72
2021/09/15 00:15:07;;;;;;;11.50;10.27;;;;;;;18.54;72.25;100081.78;8546003;34;20189;-72
2021/09/15 00:20:13;;;;;;;11.75;9.93;;;;;;;18.56;72.22;100083.28;8548407;34;20227;-72
2021/09/15 00:25:16;;;;;;;12.98;9.68;;;;;;;18.51;72.45;100077.59;8548471;34;20327;-73
2021/09/15 00:30:19;;;;;;;13.77;11.00;;;;;;;18.53;72.60;100080.09;8576673;34;20181;-73
2021/09/15 00:35:24;;;;;;;14.05;10.80;;;;;;;18.49;72.50;100067.91;8555277;34;20225;-73
2021/09/15 00:40:27;;;;;;;11.05;9.88;;;;;;;18.45;72.49;100069.28;8545593;34;20245;-72
2021/09/15 00:45:30;;;;;;;10.90;9.80;;;;;;;18.35;72.70;100059.53;8543870;34;20281;-72
2021/09/15 00:50:34;;;;;;;12.80;10.65;;;;;;;18.34;72.90;100057.81;8545964;34;20213;-72
2021/09/15 00:55:38;;;;;;;13.25;11.00;;;;;;;18.35;72.75;100059.53;8543960;34;20181;-73
2021/09/15 01:00:42;;;;;;;13.05;10.85;;;;;;;18.36;72.75;100054.94;8545969;34;20276;-72
2021/09/15 01:05:47;;;;;;;16.38;11.43;;;;;;;18.29;72.83;100051.25;8543862;34;20292;-73
2021/09/15 01:10:52;;;;;;;13.52;11.15;;;;;;;18.24;73.00;100053.66;8545828;34;20154;-73
2021/09/15 01:16:02;;;;;;;12.55;11.15;;;;;;;18.21;73.04;100059.47;8544758;34;20165;-72
2021/09/15 01:21:35;;;;;;;14.93;11.25;;;;;;;18.16;73.04;100054.59;8527538;34;20224;-71
2021/09/15 01:26:47;;;;;;;13.57;10.68;;;;;;;18.18;72.95;100047.06;8544611;34;20186;-72
2021/09/15 01:32:11;;;;;;;13.85;10.50;;;;;;;18.13;73.11;100044.94;8545237;34;20193;-72
2021/09/15 01:37:17;;;;;;;13.93;10.88;;;;;;;18.13;72.97;100038.66;8543037;34;20688;-72
2021/09/15 01:42:46;;;;;;;17.52;10.98;;;;;;;18.17;72.86;100039.97;8542796;34;20275;-72
2021/09/15 01:47:49;;;;;;;14.15;10.43;;;;;;;18.19;72.63;100032.47;8542427;33;20244;-72
2021/09/15 01:52:54;;;;;;;12.27;9.90;;;;;;;18.18;72.65;100036.19;8542921;33;20232;-72
2021/09/15 01:58:08;;;;;;;12.93;10.23;;;;;;;18.08;72.95;100028.31;8565334;33;20694;-72
2021/09/15 02:03:37;;;;;;;11.07;9.82;;;;;;;18.04;73.02;100013.38;8512405;33;20236;-72
2021/09/15 02:08:57;;;;;;;13.73;10.05;;;;;;;18.02;73.16;100006.44;8543369;33;20217;-73
2021/09/15 02:14:17;;;;;;;14.07;11.45;;;;;;;17.95;73.19;100000.03;8544037;33;20178;-73
2021/09/15 02:19:25;;;;;;;14.13;10.60;;;;;;;17.92;73.51;100007.50;8543872;33;20130;-72
2021/09/15 02:24:52;;;;;;;14.50;10.68;;;;;;;17.83;73.56;100000.47;8532601;33;20591;-73
2021/09/15 02:30:14;;;;;;;12.82;10.65;;;;;;;17.82;73.76;100000.63;8544008;33;20185;-72
2021/09/15 02:35:26;;;;;;;12.25;10.18;;;;;;;17.88;73.50;100006.19;8541922;33;20183;-72
2021/09/15 02:40:57;;;;;;;13.88;10.35;;;;;;;17.84;73.45;99998.59;8502344;33;20154;-72
2021/09/15 02:46:16;;;;;;;12.13;10.07;;;;;;;17.80;73.48;99987.25;8548098;33;20150;-72
2021/09/15 02:51:55;;;;;;;12.00;10.70;;;;;;;17.80;73.57;99987.25;8448250;33;20692;-72
2021/09/15 02:57:07;;;;;;;12.20;10.48;;;;;;;17.83;73.37;99988.75;8546107;33;20234;-72
2021/09/15 03:02:14;;;;;;;16.00;10.73;;;;;;;17.79;73.41;99992.84;8546775;33;20182;-72
2021/09/15 03:07:35;;;;;;;12.25;10.65;;;;;;;17.70;73.55;99982.03;8546541;33;21058;-71
2021/09/15 03:12:40;;;;;;;15.77;10.55;;;;;;;17.69;73.72;99974.09;8546992;33;20245;-72
2021/09/15 03:17:43;;;;;;;14.85;10.48;;;;;;;17.83;73.17;99978.72;8545817;33;20645;-72
2021/09/15 03:22:46;;;;;;;14.25;11.48;;;;;;;17.82;73.38;99965.31;8547869;33;20572;-72
2021/09/15 03:27:51;;;;;;;13.75;10.38;;;;;;;17.80;73.49;99953.78;8547247;33;20189;-72
2021/09/15 03:32:54;;;;;;;13.75;11.13;;;;;;;17.69;73.93;99952.34;8547252;33;20246;-72
2021/09/15 03:37:57;;;;;;;14.43;11.13;;;;;;;17.58;74.10;99944.59;8546405;33;20470;-72
2021/09/15 03:43:02;;;;;;;13.07;10.35;;;;;;;17.67;74.10;99940.81;8545886;33;21600;-72
2021/09/15 03:48:05;;;;;;;12.13;10.18;;;;;;;17.66;73.98;99930.97;8545337;33;20849;-72
2021/09/15 03:53:09;;;;;;;13.90;10.93;;;;;;;17.62;74.03;99926.94;8545529;33;20179;-72
2021/09/15 03:58:13;;;;;;;13.10;10.80;;;;;;;17.63;74.01;99926.75;8544778;33;20248;-72
2021/09/15 04:03:17;;;;;;;12.52;10.60;;;;;;;17.76;73.71;99931.56;8545617;33;20236;-71
2021/09/15 04:08:20;;;;;;;16.63;11.75;;;;;;;17.73;73.91;99929.22;8544855;33;20789;-72
2021/09/15 04:13:26;;;;;;;14.82;11.40;;;;;;;17.84;73.41;99925.22;8545604;33;20665;-72
2021/09/15 04:18:29;;;;;;;15.98;10.75;;;;;;;17.85;73.29;99933.22;8547008;33;20224;-72
2021/09/15 04:23:38;;;;;;;12.70;11.02;;;;;;;17.83;73.50;99939.84;8545265;33;20190;-72
2021/09/15 04:34:04;;;;;;;14.00;11.52;;;;;;;17.79;73.62;99944.78;8544770;33;21435;-72
2021/09/15 04:39:22;;;;;;;15.68;11.18;;;;;;;17.77;73.46;99941.44;8545302;33;20514;-73
2021/09/15 04:44:27;;;;;;;15.02;11.23;;;;;;;17.80;73.76;99935.63;8544967;33;20735;-72
2021/09/15 04:49:31;;;;;;;14.02;11.23;;;;;;;17.79;73.90;99933.91;8544560;33;20196;-72
2021/09/15 04:54:34;;;;;;;13.85;11.43;;;;;;;17.84;73.69;99941.53;8543193;33;20235;-73
2021/09/15 04:59:39;;;;;;;14.77;12.15;;;;;;;17.82;74.03;99941.69;8543911;33;20190;-72
2021/09/15 05:04:42;;;;;;;15.77;11.68;;;;;;;17.80;74.13;99941.06;8544585;33;20238;-72
2021/09/15 05:10:04;;;;;;;14.70;11.68;;;;;;;17.76;74.10;99938.88;8543928;33;20904;-72
2021/09/15 05:15:11;;;;;;;17.27;12.30;;;;;;;17.70;74.23;99935.03;8542326;33;20497;-72
2021/09/15 05:20:17;;;;;;;15.38;11.70;;;;;;;17.74;74.19;99938.22;8543457;33;21697;-72
2021/09/15 05:25:23;;;;;;;16.80;12.00;;;;;;;17.71;75.10;99942.13;8542802;33;20860;-72
2021/09/15 05:30:29;;;;;;;16.65;12.43;;;;;;;17.53;76.75;99944.31;8543129;33;20150;-72
2021/09/15 05:35:35;;;;;;;16.63;13.25;;;;;;;17.32;82.29;99951.22;8543295;33;20446;-72
2021/09/15 05:40:40;;;;;;;18.23;13.25;;;;;;;17.29;80.76;99951.59;8543323;33;20378;-72
2021/09/15 05:45:45;;;;;;;15.95;12.88;;;;;;;17.22;80.86;99954.19;8543661;33;21402;-72
2021/09/15 05:50:48;;;;;;;17.83;13.52;;;;;;;17.17;81.63;99953.03;8544498;33;20241;-72
2021/09/15 05:55:51;;;;;;;16.73;13.10;;;;;;;17.17;82.26;99955.75;8542906;33;20417;-72
2021/09/15 06:00:56;;;;;;;17.75;14.13;;;;;;;17.14;82.77;99950.66;8543043;33;20238;-72
2021/09/15 06:06:00;;;;;;;15.93;13.25;;;;;;;17.15;82.80;99946.94;8546654;33;20210;-72
2021/09/15 06:11:03;;;;;;;21.30;14.82;;;;;;;17.17;82.80;99958.47;8546233;33;20166;-72
2021/09/15 06:16:09;;;;;;;18.48;13.85;;;;;;;17.18;82.77;99949.28;8543116;33;20269;-72
2021/09/15 06:21:14;;;;;;;23.35;15.23;;;;;;;17.14;82.75;99945.22;8548185;33;22049;-72
2021/09/15 06:26:40;;;;;;;19.35;14.77;;;;;;;17.17;83.37;99943.00;8548814;33;20213;-72
2021/09/15 06:31:46;;;;;;;22.48;15.65;;;;;;;17.28;83.73;99940.91;8547883;33;21627;-73
2021/09/15 06:36:49;;;;;;;21.52;16.30;;;;;;;17.44;84.35;99933.53;8547800;33;20221;-73
2021/09/15 06:41:52;;;;;;;21.10;15.65;;;;;;;17.54;84.34;99935.97;8549330;33;21493;-72
2021/09/15 06:46:56;;;;;;;22.50;14.98;;;;;;;17.60;84.42;99937.13;8548151;33;20186;-72
2021/09/15 06:52:00;;;;;;;20.73;15.02;;;;;;;17.65;83.66;99927.41;8548832;33;20347;-74
2021/09/15 06:57:05;;;;;;;20.05;14.55;;;;;;;17.74;84.34;99933.63;8546293;33;20138;-72
2021/09/15 07:02:11;;;;;;;21.20;15.18;;;;;;;17.81;83.54;99923.72;8548238;33;20197;-72
2021/09/15 07:07:14;;;;;;;19.70;14.85;;;;;;;17.74;82.94;99919.19;8547962;33;20197;-72
2021/09/15 07:12:17;;;;;;;20.08;14.13;;;;;;;17.70;83.44;99924.16;8548486;33;20237;-72
2021/09/15 07:17:22;;;;;;;18.25;14.63;;;;;;;17.72;84.09;99937.53;8547280;33;21062;-73
2021/09/15 07:22:25;;;;;;;20.60;14.90;;;;;;;17.61;84.16;99931.53;8548421;33;20200;-72
2021/09/15 07:27:28;;;;;;;17.67;12.55;;;;;;;17.64;84.69;99928.44;8547303;33;20272;-73
2021/09/15 07:32:33;;;;;;;21.15;14.60;;;;;;;17.55;85.28;99931.38;8548174;33;20181;-72
2021/09/15 07:37:36;;;;;;;21.52;14.90;;;;;;;17.34;86.73;99948.34;8547353;33;20329;-73
2021/09/15 07:42:39;;;;;;;19.25;14.88;;;;;;;17.29;87.75;99948.03;8547398;33;20806;-72
2021/09/15 07:47:44;;;;;;;24.15;17.08;;;;;;;17.33;88.29;99941.22;8546762;33;20246;-74
2021/09/15 07:52:47;;;;;;;19.35;15.20;;;;;;;17.44;88.53;99944.38;8547465;33;20609;-74
2021/09/15 07:57:53;;;;;;;22.33;17.00;;;;;;;17.46;87.61;99938.75;8546745;33;20443;-74
2021/09/15 08:02:57;;;;;;;20.98;15.90;;;;;;;17.63;88.72;99937.59;8547419;33;20265;-74
2021/09/15 08:08:01;;;;;;;24.90;17.25;;;;;;;17.87;89.31;99933.00;8547330;33;20178;-74
2021/09/15 08:13:04;;;;;;;26.42;17.88;;;;;;;18.12;89.70;99941.81;8545643;33;20373;-74
2021/09/15 08:18:09;;;;;;;25.70;18.27;;;;;;;18.33;88.70;99944.66;8546470;33;20522;-74
2021/09/15 08:23:32;;;;;;;25.77;17.95;;;;;;;18.62;89.07;99932.09;8547381;33;20194;-73
2021/09/15 08:28:37;;;;;;;25.23;17.60;;;;;;;18.74;86.82;99929.78;8546626;33;20190;-74
2021/09/15 08:33:41;;;;;;;26.15;18.90;;;;;;;18.96;86.83;99926.13;8547592;33;20276;-73
2021/09/15 08:38:44;;;;;;;23.65;18.42;;;;;;;19.31;87.11;99925.44;8510182;33;20251;-73
2021/09/15 08:43:47;;;;;;;26.58;17.23;;;;;;;19.20;85.09;99916.78;8490599;34;20171;-73
2021/09/15 08:48:52;;;;;;;22.50;17.10;;;;;;;19.38;86.85;99915.50;8488817;34;20214;-72
2021/09/15 08:53:56;;;;;;;22.42;17.27;;;;;;;19.61;84.60;99916.19;8492295;34;20136;-72
2021/09/15 08:59:01;;;;;;;23.65;17.35;;;;;;;19.63;85.06;99905.09;8488957;34;20210;-73
2021/09/15 09:04:06;;;;;;;21.02;15.32;;;;;;;19.70;83.05;99916.91;8488456;34;20610;-72
2021/09/15 09:09:10;;;;;;;23.25;17.35;;;;;;;19.56;83.58;99905.03;8489449;34;20454;-73
2021/09/15 09:14:14;;;;;;;24.92;17.20;;;;;;;19.45;82.41;99898.19;8488698;34;20249;-74
2021/09/15 09:19:26;;;;;;;22.38;17.33;;;;;;;19.59;80.85;99879.28;8489410;34;20546;-71
2021/09/15 09:24:30;;;;;;;22.98;17.10;;;;;;;20.08;84.16;99881.16;8489881;34;21259;-72
2021/09/15 09:29:36;;;;;;;18.85;15.88;;;;;;;20.24;82.23;99871.78;8489487;34;20233;-72
2021/09/15 09:34:44;;;;;;;22.08;16.83;;;;;;;20.11;80.73;99856.22;8487018;34;20933;-73
2021/09/15 09:39:49;;;;;;;20.40;15.82;;;;;;;19.86;81.20;99861.28;8488652;34;20281;-73
2021/09/15 09:44:54;;;;;;;22.00;16.52;;;;;;;19.41;83.57;99896.03;8511120;33;20284;-73
2021/09/15 09:50:00;;;;;;;26.80;17.98;;;;;;;18.14;92.95;99897.13;8542519;33;20695;-73
2021/09/15 09:55:05;;;;;;;29.15;18.58;;;;;;;18.36;93.58;99897.22;8542018;33;22251;-74
2021/09/15 10:00:11;;;;;;;29.00;18.20;;;;;;;18.33;93.00;99917.47;8543967;34;20266;-73
2021/09/15 10:05:17;;;;;;;26.38;18.77;;;;;;;19.17;95.84;99898.09;8543456;34;20751;-74
2021/09/15 10:10:22;;;;;;;29.73;20.65;;;;;;;19.86;95.38;99900.28;8545232;34;20213;-73
2021/09/15 10:15:26;;;;;;;28.27;20.30;;;;;;;20.64;96.57;99888.44;8546332;34;20178;-75
2021/09/15 10:20:32;;;;;;;25.33;19.67;;;;;;;21.15;95.15;99888.03;8546630;34;20190;-74
2021/09/15 10:25:38;;;;;;;24.08;17.38;;;;;;;20.91;93.01;99878.47;8544774;34;20671;-72
2021/09/15 10:30:46;;;;;;;22.50;15.85;;;;;;;20.58;91.06;99862.81;8544025;34;20713;-72
2021/09/15 10:35:51;;;;;;;18.40;14.00;;;;;;;20.13;88.75;99878.69;8543024;34;21089;-73
2021/09/15 10:40:54;;;;;;;16.67;12.50;;;;;;;19.97;87.13;99863.47;8543100;34;20505;-72
2021/09/15 10:46:33;;;;;;;15.85;12.15;;;;;;;19.97;84.75;99852.56;8543883;34;20711;-72
2021/09/15 10:51:37;;;;;;;15.48;11.43;;;;;;;19.92;83.68;99851.47;8545645;34;20190;-73
2021/09/15 10:56:40;;;;;;;15.05;10.55;;;;;;;19.45;83.21;99861.94;8544620;34;20150;-72
2021/09/15 11:01:43;;;;;;;13.02;10.93;;;;;;;19.41;84.56;99864.19;8545408;34;20695;-72
2021/09/15 11:06:48;;;;;;;14.93;10.23;;;;;;;19.33;83.43;99852.59;8547460;34;20182;-72
2021/09/15 11:11:52;;;;;;;11.95;10.15;;;;;;;19.46;83.63;99852.72;8549476;34;20437;-72
2021/09/15 11:17:03;;;;;;;14.45;10.82;;;;;;;19.38;84.03;99847.41;8548226;34;20332;-72
2021/09/15 11:22:11;;;;;;;12.10;9.93;;;;;;;19.20;83.27;99845.16;8548996;34;20182;-73
2021/09/15 11:27:19;;;;;;;11.73;9.43;;;;;;;19.28;83.20;99839.59;8547657;34;20196;-72
2021/09/15 11:32:23;;;;;;;12.20;9.13;;;;;;;19.81;82.43;99828.31;8547781;34;20181;-72
2021/09/15 11:37:31;;;;;;;10.85;8.80;;;;;;;20.12;80.89;99825.16;8547416;34;20232;-72
2021/09/15 11:42:36;;;;;;;9.95;8.23;;;;;;;20.27;80.95;99820.44;8547009;34;20558;-72
2021/09/15 11:47:44;;;;;;;8.45;6.97;;;;;;;20.31;79.01;99815.44;8546320;34;20321;-72
2021/09/15 11:52:52;;;;;;;9.55;6.82;;;;;;;20.04;78.80;99818.00;8547058;34;21376;-73
2021/09/15 11:58:00;;;;;;;8.45;7.22;;;;;;;20.06;80.22;99813.19;8546407;34;20185;-73
2021/09/15 12:03:07;;;;;;;10.00;6.65;;;;;;;20.10;78.49;99810.88;8545507;34;20624;-73
2021/09/15 12:08:12;;;;;;;8.82;6.05;;;;;;;20.04;78.49;99822.59;8546616;34;21844;-73
2021/09/15 12:13:15;;;;;;;9.77;6.30;;;;;;;19.92;76.38;99824.22;8546742;34;21154;-73
2021/09/15 12:18:21;;;;;;;7.78;6.13;;;;;;;20.02;77.14;99821.94;8545172;34;20184;-74
2021/09/15 12:23:35;;;;;;;8.77;5.93;;;;;;;19.89;76.55;99825.44;8546699;34;20190;-73
2021/09/15 12:28:38;;;;;;;6.95;5.90;;;;;;;19.78;76.04;99820.56;8546186;34;20601;-74
2021/09/15 12:33:41;;;;;;;8.57;5.40;;;;;;;19.51;78.34;99820.31;8546145;34;20470;-73
2021/09/15 12:38:55;;;;;;;7.30;5.63;;;;;;;18.56;83.86;99833.06;8546196;34;20757;-74
2021/09/15 12:44:09;;;;;;;9.98;6.50;;;;;;;18.23;87.00;99826.34;8549503;34;20865;-74
2021/09/15 12:49:12;;;;;;;10.25;7.07;;;;;;;17.95;88.90;99820.69;8549032;34;20654;-75
2021/09/15 12:54:20;;;;;;;10.55;7.40;;;;;;;17.80;91.08;99829.69;8546089;34;20135;-73
2021/09/15 12:59:30;;;;;;;10.70;8.07;;;;;;;18.03;90.88;99828.81;8547588;33;20522;-74
2021/09/15 13:04:34;;;;;;;9.07;7.40;;;;;;;17.93;91.85;99824.44;8551306;33;20131;-73
2021/09/15 13:09:38;;;;;;;8.98;6.95;;;;;;;18.09;91.36;99822.59;8549973;33;20265;-74
2021/09/15 13:14:42;;;;;;;13.07;7.65;;;;;;;17.77;91.33;99811.03;8547350;33;20200;-73
2021/09/15 13:19:46;;;;;;;1.65;1.17;;;;;;;17.67;92.03;99813.19;8568421;33;20240;-74
2021/09/15 13:24:51;;;;;;;0.95;0.82;;;;;;;17.63;92.49;99807.25;8545158;33;20201;-73
2021/09/15 13:29:54;;;;;;;0.30;0.30;;;;;;;17.74;92.28;99810.56;8548420;33;20182;-73
2021/09/15 13:34:58;;;;;;;0.73;0.73;;;;;;;17.72;92.39;99810.75;8545619;33;20665;-75
2021/09/15 13:40:03;;;;;;;0.57;0.57;;;;;;;17.66;92.66;99814.19;8567430;33;20663;-74
2021/09/15 13:45:10;;;;;;;0.50;0.50;;;;;;;17.72;92.52;99816.19;8545605;33;20699;-74
2021/09/15 13:50:16;;;;;;;2.30;1.95;;;;;;;17.70;92.79;99815.53;8545461;33;20750;-74
2021/09/15 13:55:22;;;;;;;1.60;1.50;;;;;;;17.84;92.44;99817.41;8544859;33;21255;-74
2021/09/15 14:00:25;;;;;;;2.10;2.00;;;;;;;17.91;93.23;99818.38;8545108;33;20209;-73
2021/09/15 14:05:29;;;;;;;2.20;2.00;;;;;;;18.08;92.88;99804.63;8546501;33;20147;-74
2021/09/15 14:10:34;;;;;;;1.58;1.48;;;;;;;18.12;91.86;99806.75;8570390;33;20247;-73
2021/09/15 14:15:40;;;;;;;4.38;1.30;;;;;;;18.43;90.96;99810.31;8548208;33;20150;-72
2021/09/15 14:20:43;;;;;;;2.00;1.52;;;;;;;18.32;90.18;99807.06;8528022;33;21023;-74
2021/09/15 14:25:48;;;;;;;6.40;2.67;;;;;;;18.10;90.15;99822.44;8542883;33;20190;-73
2021/09/15 14:30:51;;;;;;;2.15;1.88;;;;;;;17.97;90.97;99814.09;8544016;33;20198;-71
2021/09/15 14:35:54;;;;;;;2.10;2.00;;;;;;;18.17;89.74;99824.41;8543205;33;20453;-72
2021/09/15 14:40:59;;;;;;;2.10;1.88;;;;;;;18.00;89.45;99821.03;8547696;33;20147;-74
2021/09/15 14:46:02;;;;;;;1.38;1.27;;;;;;;17.80;90.01;99832.41;8547729;33;20715;-73
2021/09/15 14:51:06;;;;;;;2.03;1.45;;;;;;;17.80;90.52;99840.56;8548968;33;20810;-73
2021/09/15 14:56:11;;;;;;;2.40;2.25;;;;;;;17.65;90.88;99850.53;8547357;33;20550;-73
2021/09/15 15:01:14;;;;;;;1.52;1.42;;;;;;;18.00;90.06;99849.03;8546282;33;20217;-73
2021/09/15 15:06:17;;;;;;;2.38;1.48;;;;;;;17.97;90.50;99857.56;8545310;33;20232;-74
2021/09/15 15:11:22;;;;;;;2.53;1.40;;;;;;;18.01;89.96;99849.88;8547919;34;20150;-74
2021/09/15 15:16:25;;;;;;;1.88;1.77;;;;;;;18.25;90.19;99855.03;8550487;34;20639;-74
2021/09/15 15:21:29;;;;;;;1.40;1.40;;;;;;;18.18;89.47;99862.25;8550160;34;20411;-73
2021/09/15 15:26:33;;;;;;;1.02;1.02;;;;;;;18.23;89.14;99861.69;8548321;34;20695;-74
2021/09/15 15:31:36;;;;;;;4.13;1.40;;;;;;;18.64;87.26;99861.22;8548166;34;20479;-73
2021/09/15 15:36:39;;;;;;;0.82;0.82;;;;;;;19.55;88.10;99858.88;8547325;34;20238;-73
2021/09/15 15:41:46;;;;;;;1.30;1.00;;;;;;;19.94;80.67;99858.41;8547160;33;20242;-73
2021/09/15 15:46:49;;;;;;;1.67;1.20;;;;;;;20.48;80.07;99862.31;8546246;33;20252;-73
2021/09/15 15:51:52;;;;;;;0.52;0.52;;;;;;;20.35;78.41;99860.38;8546455;33;20722;-73
2021/09/15 15:56:56;;;;;;;0.75;0.75;;;;;;;20.71;79.63;99856.56;8546275;33;20182;-73
2021/09/15 16:02:01;;;;;;;0.85;0.75;;;;;;;20.58;78.84;99861.97;8546418;33;20274;-73
2021/09/15 16:07:06;;;;;;;0.98;0.98;;;;;;;19.77;79.85;99863.28;8546027;34;20189;-74
2021/09/15 16:12:10;;;;;;;0.95;0.95;;;;;;;20.53;78.40;99849.75;8546391;34;20277;-73
2021/09/15 16:17:14;;;;;;;2.33;1.23;;;;;;;20.64;77.13;99859.25;8546217;34;20675;-73
2021/09/15 16:22:17;;;;;;;0.90;0.90;;;;;;;19.96;77.16;99861.75;8546663;34;20214;-73
2021/09/15 16:27:23;;;;;;;0.90;0.90;;;;;;;19.46;78.80;99869.91;8545571;34;20661;-73
2021/09/15 16:32:28;;;;;;;1.00;1.00;;;;;;;19.83;80.20;99861.69;8546751;34;20711;-73
2021/09/15 16:37:33;;;;;;;1.98;1.85;;;;;;;19.99;79.75;99853.19;8546585;34;21089;-72
2021/09/15 16:42:39;;;;;;;1.75;1.35;;;;;;;19.75;78.23;99865.38;8546371;34;20631;-73
2021/09/15 16:47:42;;;;;;;2.65;1.30;;;;;;;19.43;80.54;99861.28;8545103;34;20281;-73
2021/09/15 16:52:46;;;;;;;0.65;0.65;;;;;;;19.02;82.65;99867.34;8545445;34;20178;-73
2021/09/15 16:57:51;;;;;;;13.20;10.63;;;;;;;18.52;83.67;99874.44;8544967;34;20249;-73
2021/09/15 17:02:54;;;;;;;14.30;12.07;;;;;;;18.48;84.85;99875.84;8546341;34;20229;-73
2021/09/15 17:07:57;;;;;;;15.57;11.52;;;;;;;18.35;85.51;99876.53;8550134;34;20185;-72
2021/09/15 17:13:01;;;;;;;16.17;12.45;;;;;;;18.26;86.06;99877.63;8549298;34;20751;-72
2021/09/15 17:18:05;;;;;;;20.50;12.77;;;;;;;18.19;86.07;99882.97;8544420;34;20170;-73
2021/09/15 17:23:08;;;;;;;15.63;11.32;;;;;;;18.12;86.56;99877.44;8544793;34;20207;-72
2021/09/15 17:28:14;;;;;;;16.05;11.43;;;;;;;18.03;86.43;99880.44;8543561;34;20249;-72
2021/09/15 17:33:17;;;;;;;16.48;12.52;;;;;;;17.96;86.86;99883.00;8545175;34;20472;-73
2021/09/15 17:38:20;;;;;;;16.85;12.25;;;;;;;17.91;86.95;99894.44;8544097;34;20252;-73
2021/09/15 17:43:25;;;;;;;14.88;12.27;;;;;;;17.92;86.64;99895.28;8544664;34;20216;-73
2021/09/15 17:48:28;;;;;;;17.88;12.90;;;;;;;18.02;86.90;99903.19;8543760;34;20271;-73
2021/09/15 17:53:31;;;;;;;18.75;12.63;;;;;;;18.00;86.34;99902.53;8544363;34;20288;-73
2021/09/15 17:58:36;;;;;;;17.38;12.38;;;;;;;17.60;87.14;99913.53;8543693;34;20737;-73
2021/09/15 18:03:39;;;;;;;27.48;16.50;;;;;;;17.33;90.15;99920.34;8543749;34;20289;-74
2021/09/15 18:08:42;;;;;;;1.60;1.55;;;;;;;16.79;92.97;99939.25;8543756;34;20253;-73
2021/09/15 18:13:47;;;;;;;3.38;2.45;;;;;;;16.66;95.81;99941.69;8544031;34;20196;-73
2021/09/15 18:18:50;;;;;;;4.43;2.00;;;;;;;16.75;94.35;99941.47;8548850;34;20647;-73
2021/09/15 18:23:54;;;;;;;1.60;1.30;;;;;;;16.89;93.31;99941.75;8549485;34;20221;-74
2021/09/15 18:29:00;;;;;;;9.13;3.10;;;;;;;16.89;92.89;99950.72;8546085;34;20692;-74
2021/09/15 18:34:03;;;;;;;2.92;2.72;;;;;;;16.81;93.27;99954.34;8548206;34;20260;-73
2021/09/15 18:39:06;;;;;;;6.80;4.30;;;;;;;16.81;93.19;99967.03;8548390;34;20695;-74
2021/09/15 18:44:11;;;;;;;1.83;1.73;;;;;;;16.86;93.45;99963.81;8548030;34;20702;-74
2021/09/15 18:49:14;;;;;;;4.85;3.72;;;;;;;16.80;93.16;99978.91;8548823;34;20459;-73
2021/09/15 18:54:18;;;;;;;6.40;3.35;;;;;;;16.66;93.15;99985.91;8547565;34;20239;-73
2021/09/15 18:59:22;;;;;;;4.45;3.22;;;;;;;16.93;93.24;99987.34;8548155;34;20217;-73
2021/09/15 19:04:25;;;;;;;16.45;3.85;;;;;;;16.95;92.98;99985.31;8546616;33;20185;-74
2021/09/15 19:09:28;;;;;;;2.58;2.45;;;;;;;16.99;92.62;99996.66;8547916;34;20471;-72
2021/09/15 19:14:33;;;;;;;55.50;29.90;;;;;;;16.77;93.16;100006.38;8547142;34;20625;-74
2021/09/15 19:19:36;;;;;;;59.55;31.50;;;;;;;16.52;93.60;100011.88;8547703;33;20949;-73
2021/09/15 19:24:40;;;;;;;48.40;28.63;;;;;;;16.28;93.29;100017.31;8542311;33;20190;-72
2021/09/15 19:29:44;;;;;;;55.15;30.70;;;;;;;16.20;92.58;100030.84;8542599;33;20252;-72
2021/09/15 19:34:47;;;;;;;60.65;32.30;;;;;;;16.46;91.58;100036.97;8546118;33;20952;-73
2021/09/15 19:39:50;;;;;;;55.03;30.55;;;;;;;16.24;91.15;100049.31;8546897;33;20359;-74
2021/09/15 19:44:56;;;;;;;51.47;27.92;;;;;;;16.21;90.29;100052.34;8546122;34;20197;-73
2021/09/15 19:49:59;;;;;;;44.97;26.08;;;;;;;16.19;89.82;100053.53;8547572;34;20184;-73
2021/09/15 19:55:02;;;;;;;39.65;24.42;;;;;;;15.91;88.63;100059.28;8545633;34;20226;-72
2021/09/15 20:00:09;;;;;;;36.80;21.38;;;;;;;15.90;88.16;100076.53;8546144;34;20284;-72
2021/09/15 20:05:15;;;;;;;35.58;21.95;;;;;;;16.01;88.34;100083.47;8544480;33;20198;-73
2021/09/15 20:10:18;;;;;;;33.22;20.40;;;;;;;15.88;88.12;100081.28;8544375;33;20280;-73
2021/09/15 20:15:22;;;;;;;30.77;18.77;;;;;;;15.71;87.32;100083.06;8545295;34;20684;-72
2021/09/15 20:20:25;;;;;;;27.50;18.08;;;;;;;15.70;87.10;100084.09;8545998;34;20639;-72
2021/09/15 20:25:29;;;;;;;29.42;16.83;;;;;;;15.45;87.12;100086.72;8545279;34;20188;-72
2021/09/15 20:30:34;;;;;;;27.42;15.70;;;;;;;15.56;87.06;100100.97;8546415;34;20241;-72
2021/09/15 20:35:38;;;;;;;25.02;15.50;;;;;;;15.58;86.96;100098.97;8544505;34;20613;-72
2021/09/15 20:40:41;;;;;;;24.77;15.65;;;;;;;15.46;86.81;100104.66;8545638;33;20185;-72
2021/09/15 20:45:45;;;;;;;25.27;15.48;;;;;;;15.56;86.74;100114.53;8543263;33;21700;-73
2021/09/15 20:50:49;;;;;;;25.17;14.60;;;;;;;15.47;86.47;100125.31;8543565;33;20188;-72
2021/09/15 20:55:52;;;;;;;24.75;15.18;;;;;;;15.39;86.48;100116.31;8539525;33;20245;-72
2021/09/15 21:00:56;;;;;;;26.30;15.85;;;;;;;15.27;87.33;100124.66;8543814;33;20563;-72
2021/09/15 21:06:00;;;;;;;19.05;14.05;;;;;;;15.34;86.92;100132.16;8543250;33;20178;-72
2021/09/15 21:11:03;;;;;;;26.00;15.88;;;;;;;15.42;86.65;100126.81;8543909;33;20192;-73
2021/09/15 21:16:07;;;;;;;24.25;15.65;;;;;;;15.38;86.60;100138.94;8544387;33;20198;-73
2021/09/15 21:21:11;;;;;;;23.13;15.18;;;;;;;15.34;87.13;100134.84;8548182;33;20174;-73
2021/09/15 21:26:14;;;;;;;27.08;15.20;;;;;;;15.38;86.93;100142.50;8543149;33;20197;-73
2021/09/15 21:31:18;;;;;;;21.92;14.40;;;;;;;15.30;87.48;100145.13;8544719;33;20754;-73
2021/09/15 21:36:22;;;;;;;23.67;15.88;;;;;;;15.42;87.23;100143.06;8544490;33;20818;-73
2021/09/15 21:41:25;;;;;;;26.13;16.52;;;;;;;15.32;87.33;100139.56;8544803;33;20216;-73
2021/09/15 21:46:30;;;;;;;28.02;18.25;;;;;;;15.34;87.92;100154.69;8544832;33;20801;-72
2021/09/15 21:51:33;;;;;;;28.65;17.63;;;;;;;15.10;87.87;100152.63;8546515;33;20178;-72
2021/09/15 21:56:38;;;;;;;26.20;16.60;;;;;;;15.17;88.12;100151.00;8545395;33;20272;-73
2021/09/15 22:01:42;;;;;;;30.48;16.42;;;;;;;15.09;87.64;100150.94;8544397;33;20866;-72
2021/09/15 22:06:46;;;;;;;25.77;16.35;;;;;;;15.33;87.34;100155.66;8543657;33;20277;-72
2021/09/15 22:11:49;;;;;;;27.25;16.35;;;;;;;15.25;87.01;100158.31;8544128;33;20272;-72
2021/09/15 22:16:54;;;;;;;21.20;14.02;;;;;;;15.21;86.94;100154.22;8543308;33;20147;-73
2021/09/15 22:21:57;;;;;;;18.58;13.02;;;;;;;15.10;86.62;100154.50;8543588;33;20192;-72
2021/09/15 22:27:00;;;;;;;16.60;11.80;;;;;;;15.21;87.18;100160.47;8543078;33;20189;-73
2021/09/15 22:32:06;;;;;;;19.83;11.00;;;;;;;15.11;86.22;100161.59;8543840;33;20190;-72
2021/09/15 22:37:09;;;;;;;13.27;9.02;;;;;;;15.17;86.23;100166.38;8541944;33;20198;-72
2021/09/15 22:42:12;;;;;;;12.38;6.90;;;;;;;15.15;85.51;100171.09;8543688;33;20225;-73
2021/09/15 22:47:17;;;;;;;11.30;6.20;;;;;;;15.19;85.68;100177.88;8542623;33;20439;-72
2021/09/15 22:52:20;;;;;;;8.27;5.40;;;;;;;14.95;85.52;100174.03;8542929;33;20923;-72
2021/09/15 22:57:23;;;;;;;9.13;6.00;;;;;;;15.16;86.12;100175.50;8542150;33;21502;-72
2021/09/15 23:02:27;;;;;;;8.65;4.18;;;;;;;15.07;85.14;100177.31;8547635;33;20185;-72
2021/09/15 23:07:32;;;;;;;6.57;3.92;;;;;;;15.02;84.70;100176.94;8547468;34;20163;-71
2021/09/15 23:12:36;;;;;;;6.75;3.72;;;;;;;14.93;84.58;100181.44;8547774;34;20868;-72
2021/09/15 23:17:41;;;;;;;6.60;3.60;;;;;;;15.01;85.09;100172.53;8546641;34;20608;-72
2021/09/15 23:22:44;;;;;;;4.18;3.47;;;;;;;14.97;84.97;100185.50;8547545;34;20286;-72
2021/09/15 23:27:48;;;;;;;6.53;3.80;;;;;;;14.98;84.58;100186.38;8546685;34;20788;-72
2021/09/15 23:32:52;;;;;;;6.28;3.90;;;;;;;14.91;85.45;100191.53;8547169;34;20261;-72
2021/09/15 23:37:55;;;;;;;5.80;4.32;;;;;;;14.77;85.57;100192.97;8546368;34;20221;-72